• Join FlightAware (Why Join?)
  • Login
  • US Flag 
03:19PM EDT


 

Airport Tracker/Info


-or-


 

Live Flight TrackerFlight Track Log ✈ RPA3253 ✈ 14-Jun-2013 ✈ KALB - KCLT

Flight Track Log - Related Links

Times and Time Zones

All times are in EDT time to prevent confusion due to time zone crossing. See the RPA3253 flight status page for this flight to view local times or setup timezone preferences in your user account.

Time Position Orientation Groundspeed Altitude Reporting Facility
EDT Latitude Longitude Course Direction KTS MPH feet Rate Location/Type
07:25PM 42.7736 -73.8064 220° Southwest 159 183 1,400  Level Boston Center
07:26PM 42.7900 -73.8236 322° Northwest 175 201 1,800 1,680 Climbing Boston Center
07:27PM 42.7333 -74.2542 270° West  Level FlightAware Approximate
07:27PM 42.7828 -73.9056 263° West 243 280 3,800  Level Boston Center
07:28PM 42.6798 -74.3749 220° Southwest  Level FlightAware Approximate
07:28PM 42.7708 -74.0239 262° West 288 331 6,500  Level Boston Center
07:29PM 42.5941 -74.4713 220° Southwest  Level FlightAware Approximate
07:29PM 42.7631 -74.1172 264° West 288 331 8,800  Level Boston Center
07:30PM 42.5116 -74.5724 220° Southwest  Level FlightAware Approximate
07:30PM 42.7533 -74.2158 262° West 294 338 10,700  Level Boston Center
07:31PM 42.7156 -74.3617 251° West 330 380 13,500 2,160 Climbing Boston Center
07:32PM 42.6492 -74.4611 228° Southwest 367 422 15,100 1,980 Climbing Boston Center
07:33PM 42.5764 -74.5717 228° Southwest 380 437 17,500 1,800 Climbing Boston Center
07:34PM 42.5164 -74.6597 227° Southwest 391 450 18,800 1,620 Climbing Boston Center
07:35PM 42.4258 -74.7972 228° Southwest 396 456 20,800 1,800 Climbing Boston Center
07:36PM 42.3486 -74.9094 227° Southwest 409 471 22,400 1,380 Climbing Boston Center
07:37PM 42.2667 -75.0297 227° Southwest 421 484 23,600 1,200 Climbing Boston Center
07:38PM 42.2075 -75.1478 236° Southwest 433 498 24,800 1,080 Climbing Boston Center
07:40PM 42.0883 -75.4239 240° Southwest 454 522 26,700 1,020 Climbing New York Center
07:41PM 42.0219 -75.5753 239° Southwest 471 542 27,800 960 Climbing New York Center
07:42PM 41.9492 -75.7233 237° Southwest 471 542 28,700 780 Climbing New York Center
07:43PM 41.8522 -75.8528 225° Southwest 484 557 29,400 840 Climbing New York Center
07:44PM 41.7506 -75.9839 224° Southwest 504 580 30,400 1,080 Climbing New York Center
07:45PM 41.6514 -76.1094 223° Southwest 504 580 31,600 1,140 Climbing New York Center
07:46PM 41.5450 -76.2506 225° Southwest 504 580 32,700 960 Climbing New York Center
07:47PM 41.4475 -76.3756 224° Southwest 493 567 33,600 600 Climbing New York Center
07:48PM 41.3478 -76.5000 223° Southwest 493 567 34,000 180 Climbing New York Center
07:49PM 41.2481 -76.6239 223° Southwest 493 567 34,000  Level New York Center
07:50PM 41.1500 -76.7478 224° Southwest 493 567 34,000  Level New York Center
07:51PM 41.0522 -76.8711 224° Southwest 493 567 34,000  Level New York Center
07:52PM 40.9542 -76.9917 223° Southwest 493 567 34,000  Level New York Center
07:53PM 40.8539 -77.1142 223° Southwest 493 567 34,000  Level New York Center
07:54PM 40.7556 -77.2367 223° Southwest 493 567 34,000  Level New York Center
07:55PM 40.6594 -77.3561 223° Southwest 493 567 34,000  Level New York Center
07:57PM 40.4153 -77.6542 223° Southwest 506 582 34,000  Level Cleveland Center
07:58PM 40.3139 -77.7756 222° Southwest 506 582 34,000  Level Cleveland Center
07:59PM 40.2189 -77.8939 224° Southwest 499 574 34,000  Level Cleveland Center
08:00PM 40.1153 -78.0175 222° Southwest 499 574 34,000  Level Cleveland Center
08:01PM 40.0219 -78.1294 223° Southwest 494 568 34,000  Level Cleveland Center
08:03PM 39.8728 -78.3086 223° Southwest 504 580 34,000  Level Washington Center
08:04PM 39.7850 -78.4106 222° Southwest 499 574 34,000  Level Washington Center
08:05PM 39.6842 -78.5278 222° Southwest 493 567 34,000  Level Washington Center
08:06PM 39.5833 -78.6478 223° Southwest 488 562 34,000  Level Washington Center
08:07PM 39.4822 -78.7672 222° Southwest 488 562 34,000  Level Washington Center
08:08PM 39.3833 -78.8836 222° Southwest 488 562 34,000  Level Washington Center
08:09PM 39.2842 -79.0025 223° Southwest 488 562 34,000  Level Washington Center
08:10PM 39.1806 -79.1208 222° Southwest 488 562 34,000  Level Washington Center
08:11PM 39.0814 -79.2364 222° Southwest 488 562 34,000  Level Washington Center
08:12PM 38.9797 -79.3542 222° Southwest 488 562 34,000  Level Washington Center
08:13PM 38.8781 -79.4689 221° Southwest 488 562 34,000  Level Washington Center
08:14PM 38.7653 -79.6042 223° Southwest 496 571 34,000  Level Washington Center
08:15PM 38.6656 -79.7156 221° Southwest 501 577 34,000  Level Washington Center
08:16PM 38.5742 -79.8222 222° Southwest 489 563 34,000  Level Washington Center
08:17PM 38.4722 -79.9356 221° Southwest 489 563 34,000  Level Washington Center
08:18PM 38.3700 -80.0489 221° Southwest 489 563 34,000  Level Washington Center
08:19PM 38.1872 -80.2458 220° Southwest 485 558 34,000  Level Indianapolis Center
08:20PM 38.0858 -80.3575 221° Southwest 483 556 34,000  Level Indianapolis Center
08:21PM 37.9633 -80.4928 221° Southwest 484 557 34,000  Level Indianapolis Center
08:22PM 37.8586 -80.6075 221° Southwest 492 566 34,000  Level Indianapolis Center
08:23PM 37.7631 -80.7122 221° Southwest 491 565 34,000  Level Indianapolis Center
08:25PM 37.6436 -80.8433 221° Southwest 493 567 34,000 -540 Level Indianapolis Center
08:26PM 37.5444 -80.9506 221° Southwest 486 559 33,000 -1,140 Descending Indianapolis Center
08:27PM 37.4461 -81.0589 221° Southwest 485 558 31,700 -1,260 Descending Indianapolis Center
08:28PM 37.3428 -81.1672 220° Southwest 496 571 30,500 -1,320 Descending Indianapolis Center
08:29PM 37.2364 -81.2828 221° Southwest 486 559 29,100 -1,260 Descending Indianapolis Center
08:30PM 37.1181 -81.4092 220° Southwest 479 551 28,000 -540 Descending Indianapolis Center
08:31PM 37.0172 -81.5200 221° Southwest 480 552 28,000 -300 Level Indianapolis Center
08:32PM 36.9119 -81.6297 220° Southwest 489 563 27,400 -840 Descending Indianapolis Center
08:32PM 36.8469 -81.6808 212° Southwest 491 565 26,700 -1,380 Descending Atlanta Center
08:33PM 36.7117 -81.7031 188° South 476 548 25,300 -1,380 Descending Atlanta Center
08:34PM 36.5758 -81.6889 175° South 469 540 24,000 -960 Descending Atlanta Center
08:35PM 36.4483 -81.6694 173° South 463 533 23,400 -960 Descending Atlanta Center
08:36PM 36.3147 -81.6581 176° South 468 539 22,100 -1,260 Descending Atlanta Center
08:37PM 36.1892 -81.6461 176° South 466 536 20,900 -1,320 Descending Atlanta Center
08:38PM 36.0661 -81.6344 176° South 454 522 19,500 -1,680 Descending Atlanta Center
08:39PM 35.9469 -81.6278 177° South 441 507 17,600 -1,920 Descending Atlanta Center
08:40PM 35.8389 -81.6411 186° South 411 473 15,700 -1,980 Descending Atlanta Center
08:41PM 35.8033 -81.6472 188° South 379 436 15,000 -2,040 Descending Atlanta Center
08:41PM 35.7536 -81.6539 186° South 378 435 14,200 -1,500 Descending Atlanta Center
08:41PM 35.7328 -81.6569 187° South 399 459 14,000 -240 Descending Atlanta Center
08:42PM 35.6722 -81.6639 185° South 352 405 14,000  Level Atlanta Center
08:42PM 35.6347 -81.6650 181° South 374 430 14,000 -300 Level Atlanta Center
08:43PM 35.5797 -81.6206 147° Southeast 342 394 13,700 -540 Descending Atlanta Center
08:43PM 35.5689 -81.6083 137° Southeast 332 382 13,500 -1,320 Descending Atlanta Center
08:44PM 35.5361 -81.5250 116° Southeast 326 375 12,400 -1,320 Descending Atlanta Center
08:44PM 35.5231 -81.5075 133° Southeast 311 358 12,200 -1,320 Descending Atlanta Center
08:45PM 35.4883 -81.4319 119° Southeast 317 365 11,100 -1,200 Descending Atlanta Center
08:45PM 35.4794 -81.4144 122° Southeast 316 364 11,000 -1,140 Descending Atlanta Center
08:46PM 35.4467 -81.3417 119° Southeast 307 353 10,000 -1,020 Descending Atlanta Center
08:46PM 35.4339 -81.3267 136° Southeast 316 364 10,000 -240 Level Atlanta Center
08:47PM 35.3906 -81.2619 129° Southeast 306 352 9,800 -300 Descending Atlanta Center
08:47PM 35.3778 -81.2444 132° Southeast 311 358 9,700 -840 Descending Atlanta Center
08:48PM 35.3344 -81.1747 127° Southeast 302 348 9,000 -720 Descending Atlanta Center
08:48PM 35.3236 -81.1675 151° Southeast 306 352 9,000  Level Atlanta Center
08:49PM 35.2803 -81.0953 126° Southeast 304 350 9,000 -180 Level Atlanta Center
08:50PM 35.1983 -81.0700 166° South 307 353 8,700 -1,320 Descending Atlanta Center
08:51PM 35.1106 -81.0631 176° South 298 343 6,400 -2,160 Descending Atlanta Center
08:52PM 35.0328 -81.0431 168° South 287 330 4,400 -1,740 Descending Atlanta Center
08:53PM 35.0519 -80.9714 72° East 239 275 2,900 -840 Descending Atlanta Center
08:54PM 35.0997 -80.9619 North 154 177 2,800 -660 Descending Atlanta Center
08:55PM 35.1497 -80.9653 357° North 150 173 1,600 -900 Descending Atlanta Center
08:56PM 35.1875 -80.9664 359° North 134 154 900 -720 Descending Atlanta Center